Time;durP1;ratioP1;P1;durP2;ratioP2;P2;SDS_P1;SDS_P2;PMS_P1;PMS_P2;Temp;Humidity;BMP_temperature;BMP_pressure;BME280_temperature;BME280_humidity;BME280_pressure;Samples;Min_cycle;Max_cycle;Signal;HPM_P1;HPM_P2
2022/12/29 00:01:03;;;;;;;50.53;5.13;;;8.70;99.90;;;;;;5095747;28;20036;-72
2022/12/29 00:03:30;;;;;;;36.78;4.18;;;8.70;99.90;;;;;;5094803;28;20580;-72
2022/12/29 00:05:58;;;;;;;38.40;4.78;;;8.70;99.90;;;;;;5077983;28;20051;-73
2022/12/29 00:08:39;;;;;;;39.03;4.20;;;8.70;99.90;;;;;;5095999;28;20051;-72
2022/12/29 00:11:12;;;;;;;32.00;4.07;;;8.70;99.90;;;;;;5077092;28;20052;-72
2022/12/29 00:16:27;;;;;;;41.10;4.43;;;8.80;99.90;;;;;;5077730;28;20059;-72
2022/12/29 00:18:55;;;;;;;35.60;3.75;;;9.10;99.90;;;;;;5094367;28;20460;-72
2022/12/29 00:35:35;;;;;;;43.58;4.43;;;8.70;99.90;;;;;;5061083;28;20051;-73
2022/12/29 00:46:24;;;;;;;48.67;4.50;;;8.90;99.90;;;;;;5077584;28;20040;-73
2022/12/29 00:51:37;;;;;;;44.63;4.55;;;8.90;99.90;;;;;;5076407;28;20059;-72
2022/12/29 00:54:05;;;;;;;47.10;4.50;;;9.80;99.90;;;;;;5077173;28;20044;-72
2022/12/29 00:56:33;;;;;;;;;;;8.90;99.90;;;;;;5061356;28;20040;-72
2022/12/29 00:59:05;;;;;;;37.60;4.60;;;8.70;99.90;;;;;;5059614;28;19931;-72
2022/12/29 01:01:35;;;;;;;44.83;4.45;;;8.70;99.90;;;;;;5077651;28;20055;-72
2022/12/29 01:04:04;;;;;;;43.53;4.15;;;8.60;99.90;;;;;;5059565;28;20044;-71
2022/12/29 01:06:33;;;;;;;57.15;5.60;;;8.50;99.90;;;;;;5077470;28;20345;-71
2022/12/29 01:11:47;;;;;;;40.28;4.63;;;8.50;99.90;;;;;;5093724;28;20051;-72
2022/12/29 01:14:15;;;;;;;40.88;4.78;;;8.50;99.90;;;;;;5094795;28;20044;-72
2022/12/29 01:16:44;;;;;;;36.33;4.63;;;8.40;99.90;;;;;;5094136;28;20059;-71
2022/12/29 01:19:13;;;;;;;;;;;8.40;99.90;;;;;;5077877;28;20484;-71
2022/12/29 01:21:40;;;;;;;32.83;3.53;;;8.30;99.90;;;;;;5076802;28;19920;-74
2022/12/29 01:24:08;;;;;;;38.17;4.72;;;8.40;99.90;;;;;;5059335;28;20055;-73
2022/12/29 01:26:35;;;;;;;38.05;4.68;;;8.50;99.90;;;;;;5077539;28;20048;-72
2022/12/29 01:29:03;;;;;;;37.63;5.18;;;9.60;99.90;;;;;;5077317;28;20368;-73
2022/12/29 01:31:31;;;;;;;39.25;4.70;;;8.30;99.90;;;;;;5075694;28;20052;-72
2022/12/29 01:33:58;;;;;;;40.92;4.47;;;8.30;99.90;;;;;;5076677;28;20384;-73
2022/12/29 01:36:26;;;;;;;44.78;5.00;;;8.30;99.90;;;;;;5077164;28;20047;-72
2022/12/29 01:38:54;;;;;;;42.58;5.22;;;8.30;99.90;;;;;;5075635;28;20040;-73
2022/12/29 01:41:21;;;;;;;47.33;5.47;;;8.40;99.90;;;;;;5076781;28;20048;-72
2022/12/29 01:43:52;;;;;;;46.63;5.22;;;8.40;99.90;;;;;;5075696;28;20052;-72
2022/12/29 01:46:26;;;;;;;46.42;5.10;;;8.40;99.90;;;;;;5094595;28;20048;-72
2022/12/29 01:49:16;;;;;;;45.67;5.13;;;8.40;99.90;;;;;;5060635;28;20472;-73
2022/12/29 01:51:47;;;;;;;47.42;4.97;;;8.40;99.90;;;;;;5093983;28;20048;-72
2022/12/29 01:54:26;;;;;;;39.33;4.18;;;8.30;99.90;;;;;;5080950;28;20063;-73
2022/12/29 01:56:57;;;;;;;48.25;4.43;;;8.20;99.90;;;;;;5080069;28;20048;-72
2022/12/29 01:59:35;;;;;;;37.13;4.30;;;8.20;99.90;;;;;;5063783;28;20063;-73
2022/12/29 02:02:04;;;;;;;39.78;4.22;;;8.20;99.90;;;;;;5080435;28;20055;-73
2022/12/29 02:04:33;;;;;;;35.17;4.38;;;8.10;99.90;;;;;;5079378;28;20063;-73
2022/12/29 02:07:10;;;;;;;34.33;4.10;;;9.10;99.90;;;;;;5080627;28;20067;-72
2022/12/29 02:09:37;;;;;;;51.45;5.35;;;8.00;99.90;;;;;;5080430;28;20457;-73
2022/12/29 02:12:05;;;;;;;42.40;4.57;;;8.00;99.90;;;;;;5062223;28;20051;-72
2022/12/29 02:14:34;;;;;;;42.35;4.80;;;8.00;99.90;;;;;;5080646;28;20372;-73
2022/12/29 02:17:01;;;;;;;51.35;5.75;;;8.10;99.90;;;;;;5079450;28;20396;-73
2022/12/29 02:19:53;;;;;;;36.20;4.50;;;7.90;99.90;;;;;;5097931;28;20040;-73
2022/12/29 02:22:46;;;;;;;40.97;4.47;;;8.00;99.90;;;;;;5063831;28;20452;-72
2022/12/29 02:25:19;;;;;;;40.30;4.85;;;7.90;99.90;;;;;;5078806;28;20048;-73
2022/12/29 02:28:17;;;;;;;40.78;4.93;;;7.90;99.90;;;;;;5079959;28;20055;-73
2022/12/29 02:31:05;;;;;;;50.00;4.90;;;7.90;99.90;;;;;;5078622;28;20070;-72
2022/12/29 02:33:35;;;;;;;41.50;4.80;;;7.90;99.90;;;;;;5079873;28;20051;-73
2022/12/29 02:36:39;;;;;;;52.97;5.65;;;7.90;99.90;;;;;;5063617;28;20055;-72
2022/12/29 02:39:54;;;;;;;46.88;5.25;;;7.90;99.90;;;;;;5062282;28;20063;-74
2022/12/29 02:42:24;;;;;;;44.53;5.05;;;8.00;99.90;;;;;;4999584;28;20049;-73
2022/12/29 02:45:05;;;;;;;40.53;5.30;;;9.10;99.90;;;;;;4998426;28;20157;-72
2022/12/29 02:48:01;;;;;;;39.72;5.45;;;8.00;99.90;;;;;;5035775;28;20052;-73
2022/12/29 02:50:43;;;;;;;42.72;5.10;;;8.00;99.90;;;;;;5045676;28;20476;-73
2022/12/29 02:53:17;;;;;;;48.40;5.40;;;9.10;99.90;;;;;;5079791;28;20372;-72
2022/12/29 02:55:49;;;;;;;51.05;5.43;;;9.00;99.90;;;;;;5062845;28;20044;-73
2022/12/29 02:58:22;;;;;;;46.13;5.88;;;9.70;99.90;;;;;;5061939;28;20047;-73
2022/12/29 03:01:10;;;;;;;41.17;4.93;;;8.10;99.90;;;;;;5079676;28;20047;-73
2022/12/29 03:04:01;;;;;;;48.28;6.05;;;8.10;99.90;;;;;;5077240;28;20380;-73
2022/12/29 03:06:52;;;;;;;53.80;5.57;;;8.10;99.90;;;;;;5079390;28;20036;-73
2022/12/29 03:09:35;;;;;;;52.42;6.28;;;9.50;99.90;;;;;;5079427;28;20051;-74
2022/12/29 03:12:15;;;;;;;50.35;6.07;;;8.10;99.90;;;;;;5078369;28;20471;-73
2022/12/29 03:17:43;;;;;;;41.85;5.05;;;10.20;99.90;;;;;;5061603;28;20044;-73
2022/12/29 03:20:18;;;;;;;43.22;5.78;;;8.20;99.90;;;;;;5079078;28;20040;-73
2022/12/29 03:22:51;;;;;;;43.08;5.25;;;8.90;99.90;;;;;;5062190;28;20088;-72
2022/12/29 03:25:33;;;;;;;46.88;5.93;;;8.20;99.90;;;;;;5077788;28;20047;-73
2022/12/29 03:28:10;;;;;;;50.88;5.32;;;8.10;99.90;;;;;;5046548;28;20048;-72
2022/12/29 03:30:44;;;;;;;53.58;6.18;;;8.30;99.90;;;;;;5061261;28;20048;-72
2022/12/29 03:33:25;;;;;;;49.53;6.15;;;8.40;99.90;;;;;;5062290;28;20059;-73
2022/12/29 03:36:02;;;;;;;45.17;5.60;;;8.50;99.90;;;;;;5078649;28;20481;-72
2022/12/29 03:38:35;;;;;;;42.30;6.03;;;8.70;99.90;;;;;;5061130;28;20397;-72
2022/12/29 03:41:07;;;;;;;39.65;5.43;;;9.50;99.90;;;;;;5078650;28;20276;-73
2022/12/29 03:43:35;;;;;;;45.05;5.65;;;8.90;99.90;;;;;;5077776;28;20373;-73
2022/12/29 03:46:02;;;;;;;46.45;5.57;;;9.90;99.90;;;;;;5096012;28;20048;-73
2022/12/29 03:48:30;;;;;;;50.13;5.85;;;9.50;99.90;;;;;;5078854;28;20044;-74
2022/12/29 03:50:58;;;;;;;50.22;6.15;;;10.30;99.90;;;;;;5077174;28;20040;-72
2022/12/29 03:53:25;;;;;;;41.17;6.10;;;9.60;99.90;;;;;;5078412;28;20051;-72
2022/12/29 03:55:53;;;;;;;45.92;6.07;;;9.10;99.90;;;;;;5061644;28;20051;-73
2022/12/29 03:58:22;;;;;;;40.72;5.28;;;9.80;99.90;;;;;;5077005;28;20479;-73
2022/12/29 04:01:25;;;;;;;44.70;5.15;;;9.10;99.90;;;;;;5014350;28;20049;-73
2022/12/29 04:03:52;;;;;;;51.40;6.30;;;10.30;99.90;;;;;;5064813;28;20044;-72
2022/12/29 04:06:20;;;;;;;48.70;5.57;;;9.70;99.90;;;;;;5078342;28;20044;-73
2022/12/29 04:09:00;;;;;;;46.60;6.00;;;9.10;99.90;;;;;;5061929;28;20047;-73
2022/12/29 04:11:31;;;;;;;54.85;6.47;;;9.10;99.90;;;;;;5076825;28;20059;-73
2022/12/29 04:14:03;;;;;;;46.20;5.78;;;9.40;99.90;;;;;;5078072;28;20048;-73
2022/12/29 04:16:35;;;;;;;60.58;5.93;;;9.00;99.90;;;;;;5078049;28;20044;-73
2022/12/29 04:19:07;;;;;;;47.60;5.88;;;10.30;99.90;;;;;;5076710;28;20044;-73
2022/12/29 04:21:36;;;;;;;51.90;6.35;;;10.10;99.90;;;;;;5061657;28;20055;-73
2022/12/29 04:24:06;;;;;;;51.85;5.80;;;10.10;99.90;;;;;;5076596;28;20044;-73
2022/12/29 04:26:38;;;;;;;49.33;6.13;;;9.00;99.90;;;;;;5061454;28;20059;-73
2022/12/29 04:29:20;;;;;;;43.95;4.97;;;8.90;99.90;;;;;;5061115;28;20070;-73
2022/12/29 04:31:58;;;;;;;;;;;8.90;99.90;;;;;;5060468;28;20052;-73
2022/12/29 04:34:25;;;;;;;37.55;5.10;;;8.90;99.90;;;;;;5077461;28;19920;-72
2022/12/29 04:36:53;;;;;;;53.88;6.68;;;8.90;99.90;;;;;;5060159;28;20052;-72
2022/12/29 04:39:21;;;;;;;49.33;5.93;;;8.90;99.90;;;;;;5077772;28;20036;-73
2022/12/29 04:41:49;;;;;;;54.30;5.53;;;8.80;99.90;;;;;;5077489;28;20051;-72
2022/12/29 04:44:20;;;;;;;54.97;6.43;;;8.70;99.90;;;;;;5093940;28;20052;-73
2022/12/29 04:47:09;;;;;;;54.60;7.07;;;10.10;99.90;;;;;;5077320;28;20070;-73
2022/12/29 04:49:49;;;;;;;59.72;6.47;;;9.30;99.90;;;;;;5077625;28;20048;-72
2022/12/29 04:52:39;;;;;;;56.33;6.35;;;8.50;99.90;;;;;;5060414;28;20048;-73
2022/12/29 04:55:09;;;;;;;55.83;6.15;;;10.20;99.90;;;;;;5077732;28;20046;-72
2022/12/29 04:57:37;;;;;;;61.15;5.93;;;8.70;99.90;;;;;;5059770;28;20062;-73
2022/12/29 05:00:08;;;;;;;40.20;5.28;;;8.50;99.90;;;;;;5094955;28;20044;-72
2022/12/29 05:02:37;;;;;;;50.00;6.30;;;8.50;99.90;;;;;;5077149;28;20044;-73
2022/12/29 05:05:05;;;;;;;56.20;6.18;;;8.50;99.90;;;;;;5064769;28;20052;-73
2022/12/29 05:07:38;;;;;;;57.17;6.13;;;8.50;99.90;;;;;;5057629;28;20055;-72
2022/12/29 05:10:07;;;;;;;62.13;5.72;;;8.50;99.90;;;;;;5056382;28;20051;-72
2022/12/29 05:12:36;;;;;;;45.95;5.43;;;8.60;99.90;;;;;;5040568;28;20048;-72
2022/12/29 05:15:07;;;;;;;47.30;5.57;;;9.80;99.90;;;;;;5057028;28;20461;-72
2022/12/29 05:17:35;;;;;;;51.65;5.45;;;8.70;99.90;;;;;;5022888;28;20412;-72
2022/12/29 05:20:05;;;;;;;41.60;5.10;;;8.70;99.90;;;;;;5040832;28;20056;-72
2022/12/29 05:22:33;;;;;;;58.42;6.03;;;8.70;99.90;;;;;;5057177;28;20045;-73
2022/12/29 05:25:01;;;;;;;53.83;5.93;;;8.90;99.90;;;;;;5039482;28;20071;-71
2022/12/29 05:27:29;;;;;;;49.53;5.32;;;8.70;99.90;;;;;;5058718;28;20044;-73
2022/12/29 05:30:04;;;;;;;43.20;5.60;;;10.10;99.90;;;;;;5060428;28;20048;-72
2022/12/29 05:32:32;;;;;;;54.08;5.50;;;8.70;99.90;;;;;;5044277;28;20064;-72
2022/12/29 05:35:00;;;;;;;35.83;4.50;;;8.70;99.90;;;;;;5027891;28;20055;-72
2022/12/29 05:37:29;;;;;;;43.35;5.72;;;9.20;99.90;;;;;;5059819;28;20037;-72
2022/12/29 05:39:56;;;;;;;67.72;6.68;;;8.70;99.90;;;;;;5061147;28;20461;-72
2022/12/29 05:42:24;;;;;;;48.78;5.75;;;9.70;99.90;;;;;;5044091;28;20064;-72
2022/12/29 05:45:16;;;;;;;39.83;5.07;;;8.70;99.90;;;;;;5059796;28;20492;-72
2022/12/29 05:47:54;;;;;;;45.13;5.38;;;8.60;99.90;;;;;;5061088;28;20048;-73
2022/12/29 05:50:41;;;;;;;48.83;5.38;;;8.80;99.90;;;;;;5059603;28;20048;-72
2022/12/29 05:53:11;;;;;;;41.15;5.00;;;8.60;99.90;;;;;;5061759;28;20055;-72
2022/12/29 05:55:39;;;;;;;44.20;4.82;;;8.90;99.90;;;;;;5060507;28;20040;-72
2022/12/29 05:58:16;;;;;;;41.60;4.63;;;9.00;99.90;;;;;;5059598;28;20052;-73
2022/12/29 06:00:44;;;;;;;38.90;4.53;;;8.60;99.90;;;;;;5060569;28;20338;-72
2022/12/29 06:03:12;;;;;;;;;;;8.50;99.90;;;;;;5060972;28;20051;-72
2022/12/29 06:05:39;;;;;;;35.38;3.92;;;8.60;99.90;;;;;;5074938;28;19920;-72
2022/12/29 06:08:07;;;;;;;44.13;4.63;;;8.60;99.90;;;;;;5064193;28;20048;-72
2022/12/29 06:10:35;;;;;;;24.77;3.30;;;9.60;99.90;;;;;;5079159;28;20055;-71
2022/12/29 06:13:05;;;;;;;33.80;3.58;;;8.70;99.90;;;;;;5047296;28;20044;-72
2022/12/29 06:15:36;;;;;;;29.08;3.25;;;9.10;99.90;;;;;;5080180;28;20380;-72
2022/12/29 06:18:07;;;;;;;23.73;2.88;;;8.80;99.90;;;;;;5062291;28;20051;-72
2022/12/29 06:20:35;;;;;;;23.88;2.95;;;8.80;99.90;;;;;;5063367;28;20043;-72
2022/12/29 06:23:05;;;;;;;24.95;3.20;;;8.80;99.90;;;;;;5080275;28;20460;-72
2022/12/29 06:25:33;;;;;;;22.50;3.38;;;8.80;99.90;;;;;;5079011;28;20495;-72
2022/12/29 06:28:02;;;;;;;29.88;3.60;;;9.70;99.90;;;;;;5080257;28;20044;-72
2022/12/29 06:30:30;;;;;;;18.50;2.50;;;8.70;99.90;;;;;;5096683;28;20376;-72
2022/12/29 06:32:59;;;;;;;17.40;2.42;;;8.80;99.90;;;;;;5080185;28;20040;-73
2022/12/29 06:35:26;;;;;;;;;;;8.70;99.90;;;;;;5080222;28;20044;-73
2022/12/29 06:37:54;;;;;;;22.65;2.78;;;8.60;99.90;;;;;;5061560;28;20306;-72
2022/12/29 06:40:22;;;;;;;21.02;2.58;;;9.10;99.90;;;;;;5079173;28;20472;-73
2022/12/29 06:43:08;;;;;;;20.30;2.28;;;8.50;99.90;;;;;;5079560;28;20044;-72
2022/12/29 06:45:51;;;;;;;22.73;2.53;;;8.40;99.90;;;;;;5079745;28;20036;-72
2022/12/29 06:48:19;;;;;;;20.10;2.13;;;8.40;99.90;;;;;;5097647;28;20052;-72
2022/12/29 06:50:47;;;;;;;12.93;2.00;;;8.30;99.90;;;;;;5096273;28;20514;-73
2022/12/29 06:53:14;;;;;;;10.05;1.60;;;8.30;99.90;;;;;;5062682;28;20523;-72
2022/12/29 06:55:42;;;;;;;14.30;1.77;;;8.20;99.90;;;;;;5097284;28;20373;-72
2022/12/29 06:58:09;;;;;;;12.52;1.60;;;8.10;99.90;;;;;;5096353;28;20479;-72
2022/12/29 07:00:37;;;;;;;11.35;1.27;;;9.40;99.90;;;;;;5079420;28;20052;-72
2022/12/29 07:03:05;;;;;;;10.77;1.38;;;10.20;99.90;;;;;;5079334;28;20059;-72
2022/12/29 07:05:32;;;;;;;11.77;1.63;;;8.00;99.90;;;;;;5095937;28;20044;-72
2022/12/29 07:08:00;;;;;;;13.82;1.27;;;8.00;99.90;;;;;;5062875;28;20048;-72
2022/12/29 07:10:27;;;;;;;15.63;1.65;;;8.00;99.90;;;;;;5095735;28;20040;-72
2022/12/29 07:12:55;;;;;;;12.13;1.30;;;7.90;99.90;;;;;;5079735;28;20477;-72
2022/12/29 07:15:23;;;;;;;15.70;1.73;;;7.90;99.90;;;;;;5046155;28;20044;-72
2022/12/29 07:17:50;;;;;;;13.13;1.30;;;8.30;99.90;;;;;;5095893;28;20040;-73
2022/12/29 07:20:18;;;;;;;10.07;1.35;;;7.80;99.90;;;;;;5079319;28;20044;-72
2022/12/29 07:22:53;;;;;;;13.73;1.77;;;7.80;99.90;;;;;;5097228;28;20044;-72
2022/12/29 07:25:20;;;;;;;8.10;1.20;;;9.00;99.90;;;;;;5061332;28;20059;-72
2022/12/29 07:27:49;;;;;;;11.18;1.35;;;7.80;99.90;;;;;;5062566;28;20044;-72
2022/12/29 07:30:16;;;;;;;12.90;1.40;;;7.70;99.90;;;;;;5095556;28;20051;-72
2022/12/29 07:32:44;;;;;;;8.48;1.60;;;7.70;99.90;;;;;;5078877;28;20043;-72
2022/12/29 07:35:11;;;;;;;13.30;1.42;;;9.00;99.90;;;;;;5078492;28;20052;-72
2022/12/29 07:37:38;;;;;;;12.82;1.42;;;9.20;99.90;;;;;;5095810;28;20047;-72
2022/12/29 07:40:07;;;;;;;11.77;1.30;;;8.30;99.90;;;;;;5096394;28;20036;-72
2022/12/29 07:42:34;;;;;;;14.23;1.58;;;7.50;99.90;;;;;;5096451;28;20048;-72
2022/12/29 07:45:02;;;;;;;10.77;1.27;;;7.50;99.90;;;;;;5095176;28;20048;-72
2022/12/29 07:47:49;;;;;;;8.32;1.30;;;7.50;99.90;;;;;;5078681;28;20407;-73
2022/12/29 07:50:16;;;;;;;10.82;1.20;;;7.50;99.90;;;;;;5060662;28;20059;-72
2022/12/29 07:52:44;;;;;;;8.40;1.02;;;7.50;99.90;;;;;;5045406;28;20044;-73
2022/12/29 07:55:12;;;;;;;10.45;1.23;;;7.50;99.90;;;;;;5083838;28;20044;-72
2022/12/29 07:57:39;;;;;;;7.60;1.30;;;7.50;99.90;;;;;;5115291;28;20455;-73
2022/12/29 08:00:07;;;;;;;12.48;1.00;;;9.70;99.90;;;;;;5116531;28;20048;-72
2022/12/29 08:02:38;;;;;;;10.88;1.60;;;7.50;99.90;;;;;;5116887;28;20039;-73
2022/12/29 08:05:06;;;;;;;13.30;1.63;;;7.50;99.90;;;;;;5080645;28;20047;-72
2022/12/29 08:07:33;;;;;;;8.95;1.20;;;7.50;99.90;;;;;;5098808;28;20357;-73
2022/12/29 08:10:01;;;;;;;14.23;1.23;;;7.50;99.90;;;;;;5081739;28;20353;-72
2022/12/29 08:12:28;;;;;;;9.63;1.17;;;7.50;99.90;;;;;;5087174;28;20044;-73
2022/12/29 08:14:56;;;;;;;9.35;1.38;;;7.50;99.90;;;;;;5087678;28;20063;-72
2022/12/29 08:17:23;;;;;;;9.73;1.10;;;7.50;99.90;;;;;;5103142;28;20051;-72
2022/12/29 08:19:51;;;;;;;14.75;1.42;;;7.40;99.90;;;;;;5061364;28;20373;-72
2022/12/29 08:22:19;;;;;;;10.75;1.30;;;7.30;99.90;;;;;;5077130;28;20044;-72
2022/12/29 08:24:46;;;;;;;6.55;0.95;;;7.50;99.90;;;;;;5076555;28;20044;-73
2022/12/29 08:27:14;;;;;;;9.10;1.25;;;8.80;99.90;;;;;;5095230;28;20401;-73
2022/12/29 08:29:48;;;;;;;8.23;1.20;;;7.40;99.90;;;;;;5077637;28;20052;-73
2022/12/29 08:32:16;;;;;;;9.98;1.48;;;8.70;99.90;;;;;;5094027;28;20045;-72
2022/12/29 08:34:44;;;;;;;8.93;1.13;;;7.40;99.90;;;;;;5077552;28;20044;-72
2022/12/29 08:37:12;;;;;;;8.43;1.17;;;7.40;99.90;;;;;;5042753;28;20473;-73
2022/12/29 08:39:39;;;;;;;6.50;1.30;;;7.40;99.90;;;;;;5060807;28;20043;-72
2022/12/29 08:42:07;;;;;;;10.32;1.40;;;7.40;99.90;;;;;;5094972;28;20048;-73
2022/12/29 08:44:34;;;;;;;6.13;1.15;;;7.40;99.90;;;;;;5093915;28;20054;-72
2022/12/29 08:47:02;;;;;;;8.82;1.30;;;7.40;99.90;;;;;;5094961;28;20044;-72
2022/12/29 08:49:29;;;;;;;12.95;1.33;;;7.40;99.90;;;;;;5077156;28;20059;-72
2022/12/29 08:51:57;;;;;;;6.30;1.10;;;7.40;99.90;;;;;;5093442;28;20486;-72
2022/12/29 08:54:24;;;;;;;15.38;1.55;;;8.10;99.90;;;;;;5094714;28;20246;-73
2022/12/29 08:56:53;;;;;;;9.88;1.13;;;7.40;99.90;;;;;;5064487;28;20047;-72
2022/12/29 08:59:24;;;;;;;7.45;0.93;;;7.30;99.90;;;;;;5097221;28;20043;-72
2022/12/29 09:01:52;;;;;;;;;;;7.40;99.90;;;;;;5097107;28;20043;-72
2022/12/29 09:04:20;;;;;;;10.35;1.08;;;7.40;99.90;;;;;;5105805;28;19927;-72
2022/12/29 09:06:47;;;;;;;12.35;1.50;;;7.40;99.90;;;;;;5096962;28;20379;-72
2022/12/29 09:09:15;;;;;;;11.18;1.60;;;7.40;99.90;;;;;;5115170;28;20503;-73
2022/12/29 09:11:43;;;;;;;8.70;1.10;;;7.50;99.90;;;;;;5095182;28;20047;-71
2022/12/29 09:14:11;;;;;;;8.50;1.17;;;7.50;99.90;;;;;;5113776;28;20048;-71
2022/12/29 09:19:25;;;;;;;8.77;1.23;;;9.00;99.90;;;;;;5115051;28;20376;-72
2022/12/29 09:21:53;;;;;;;12.30;1.50;;;7.50;99.90;;;;;;5115237;28;20047;-70
2022/12/29 09:24:20;;;;;;;12.50;1.42;;;7.50;99.90;;;;;;5079584;28;20384;-71
2022/12/29 09:26:48;;;;;;;10.82;1.40;;;7.60;99.90;;;;;;5115102;28;20051;-72
2022/12/29 09:29:15;;;;;;;9.73;1.20;;;7.60;99.90;;;;;;5115126;28;20047;-71
2022/12/29 09:31:43;;;;;;;14.63;1.63;;;7.60;99.90;;;;;;5095942;28;20052;-71
2022/12/29 09:34:10;;;;;;;12.73;1.42;;;7.60;99.90;;;;;;5097023;28;20051;-72
2022/12/29 09:36:38;;;;;;;16.58;1.77;;;8.70;99.90;;;;;;5114929;28;20483;-72
2022/12/29 09:39:05;;;;;;;12.38;1.55;;;7.60;99.90;;;;;;5095831;28;20051;-71
2022/12/29 09:41:56;;;;;;;14.80;1.77;;;7.60;99.90;;;;;;5114620;28;20372;-70
2022/12/29 09:44:31;;;;;;;11.07;1.52;;;7.60;99.90;;;;;;5078864;28;20040;-72
2022/12/29 09:47:00;;;;;;;10.73;1.30;;;8.30;99.90;;;;;;5096794;28;20048;-72
2022/12/29 09:49:45;;;;;;;11.40;1.50;;;7.60;99.90;;;;;;5114479;28;20474;-71
2022/12/29 09:52:47;;;;;;;13.77;1.42;;;7.60;99.90;;;;;;5113520;28;20491;-72
2022/12/29 09:55:18;;;;;;;13.25;1.45;;;7.70;99.90;;;;;;5110573;28;20056;-71
2022/12/29 09:57:49;;;;;;;12.63;1.67;;;10.00;99.90;;;;;;5113152;28;20464;-72
2022/12/29 10:00:19;;;;;;;10.68;1.33;;;8.40;99.90;;;;;;5096724;28;20476;-71
2022/12/29 10:02:53;;;;;;;9.82;1.27;;;9.50;99.90;;;;;;5096688;28;20463;-74
2022/12/29 10:05:43;;;;;;;11.50;1.48;;;7.80;99.90;;;;;;5095550;28;20055;-74
2022/12/29 10:08:22;;;;;;;13.82;1.63;;;7.80;99.90;;;;;;5079912;28;20399;-74
2022/12/29 10:11:04;;;;;;;13.13;1.33;;;9.30;99.90;;;;;;5078715;28;20507;-74
2022/12/29 10:13:53;;;;;;;10.50;1.65;;;8.60;99.90;;;;;;5098443;28;20054;-74
2022/12/29 10:16:47;;;;;;;9.73;1.40;;;8.50;99.90;;;;;;5100272;28;20043;-73
2022/12/29 10:19:20;;;;;;;9.35;1.50;;;7.90;99.90;;;;;;5118148;28;20040;-76
2022/12/29 10:22:00;;;;;;;12.07;1.60;;;8.00;99.90;;;;;;5117935;28;20040;-75
2022/12/29 10:24:30;;;;;;;11.32;1.30;;;9.00;99.90;;;;;;5099101;28;20047;-75
2022/12/29 10:26:59;;;;;;;8.90;1.40;;;8.20;99.90;;;;;;5117717;28;20066;-74
2022/12/29 10:29:37;;;;;;;11.55;1.85;;;8.30;99.90;;;;;;5117880;28;20061;-78
2022/12/29 10:32:10;;;;;;;11.30;1.48;;;9.20;99.90;;;;;;5099572;28;20066;-77
2022/12/29 10:34:43;;;;;;;8.85;1.40;;;9.90;99.90;;;;;;5118233;28;20043;-78
2022/12/29 10:37:17;;;;;;;9.98;1.30;;;8.60;99.90;;;;;;5099558;28;20051;-78
2022/12/29 10:39:49;;;;;;;12.55;1.65;;;9.40;99.90;;;;;;5118192;28;20062;-77
2022/12/29 10:42:33;;;;;;;11.57;1.13;;;9.20;99.90;;;;;;5118023;28;20376;-77
2022/12/29 10:45:00;;;;;;;9.13;1.38;;;8.70;99.90;;;;;;5099522;28;20040;-76
2022/12/29 10:47:34;;;;;;;8.02;1.20;;;8.60;99.90;;;;;;5066693;28;20066;-76
2022/12/29 10:50:02;;;;;;;6.53;1.17;;;8.70;99.90;;;;;;5118145;28;20380;-78
2022/12/29 10:52:31;;;;;;;;;;;8.80;99.90;;;;;;5100468;28;20117;-77
2022/12/29 10:55:17;;;;;;;5.43;1.17;;;8.80;99.90;;;;;;5099823;28;19919;-77
2022/12/29 10:57:45;;;;;;;7.82;1.15;;;8.90;99.90;;;;;;5098912;28;20051;-77
2022/12/29 11:00:20;;;;;;;8.65;1.17;;;9.00;99.90;;;;;;5082948;28;20043;-77
2022/12/29 11:03:00;;;;;;;8.90;1.13;;;9.00;99.90;;;;;;5117560;28;20376;-78
2022/12/29 11:05:47;;;;;;;6.72;1.20;;;9.90;99.90;;;;;;5097566;28;20380;-78
2022/12/29 11:08:32;;;;;;;9.35;1.30;;;9.00;99.90;;;;;;5117317;28;20043;-78
2022/12/29 11:11:06;;;;;;;6.25;1.02;;;9.00;99.90;;;;;;5081958;28;20051;-78
2022/12/29 11:13:55;;;;;;;7.40;1.23;;;9.30;99.90;;;;;;5117090;28;20048;-79
2022/12/29 11:16:34;;;;;;;7.00;1.20;;;9.00;99.90;;;;;;5083157;28;20047;-78
2022/12/29 11:19:02;;;;;;;12.15;1.42;;;11.30;99.90;;;;;;5115812;28;20048;-79
2022/12/29 11:21:32;;;;;;;8.13;1.17;;;10.70;99.90;;;;;;5099232;28;20491;-79
2022/12/29 11:24:25;;;;;;;6.75;1.27;;;11.30;99.90;;;;;;5097612;28;20043;-78
2022/12/29 11:26:58;;;;;;;10.63;1.50;;;8.70;99.90;;;;;;5098956;28;20044;-79
2022/12/29 11:29:28;;;;;;;10.80;1.27;;;8.70;99.90;;;;;;5116043;28;20058;-72
2022/12/29 11:31:58;;;;;;;8.15;1.35;;;8.70;99.90;;;;;;5097983;28;20060;-72
2022/12/29 11:34:35;;;;;;;14.05;1.60;;;10.40;99.90;;;;;;5116424;28;20047;-75
2022/12/29 11:37:11;;;;;;;11.52;1.60;;;8.70;99.90;;;;;;5080921;28;20059;-75
2022/12/29 11:39:50;;;;;;;7.60;1.33;;;9.00;99.90;;;;;;5098978;28;20044;-74
2022/12/29 11:42:21;;;;;;;10.05;1.23;;;8.70;99.90;;;;;;5098574;28;20468;-76
2022/12/29 11:44:51;;;;;;;7.82;1.38;;;8.70;99.90;;;;;;5115295;28;20044;-74
2022/12/29 11:47:32;;;;;;;10.10;1.33;;;10.50;99.90;;;;;;5098279;28;20471;-78
2022/12/29 11:50:06;;;;;;;9.88;1.67;;;10.20;99.90;;;;;;5116416;28;20052;-75
2022/12/29 11:52:39;;;;;;;8.50;1.42;;;8.80;99.90;;;;;;5116256;28;20048;-74
2022/12/29 11:55:21;;;;;;;8.45;1.30;;;9.90;99.90;;;;;;5116250;28;20053;-74
2022/12/29 11:57:52;;;;;;;9.35;1.65;;;8.90;99.90;;;;;;5114886;28;20117;-74
2022/12/29 12:00:23;;;;;;;11.48;1.77;;;9.00;99.90;;;;;;5116035;28;20047;-73
2022/12/29 12:02:57;;;;;;;9.73;1.50;;;9.10;99.90;;;;;;5092279;28;20059;-73
2022/12/29 12:05:30;;;;;;;11.88;1.83;;;9.10;99.90;;;;;;5102397;27;20047;-73
2022/12/29 12:08:23;;;;;;;19.48;2.03;;;9.20;99.90;;;;;;5078349;28;20055;-73
2022/12/29 12:10:58;;;;;;;12.93;2.10;;;9.20;99.90;;;;;;5097457;28;20051;-72
2022/12/29 12:13:49;;;;;;;10.75;1.70;;;9.20;99.90;;;;;;5098164;28;20410;-73
2022/12/29 12:16:22;;;;;;;13.18;2.00;;;9.20;99.90;;;;;;5052895;28;20060;-74
2022/12/29 12:19:04;;;;;;;16.40;2.25;;;9.10;99.90;;;;;;5097219;28;20031;-73
2022/12/29 12:21:43;;;;;;;15.15;2.25;;;9.10;99.90;;;;;;5104455;28;20058;-73
2022/12/29 12:24:21;;;;;;;14.77;2.10;;;9.10;99.90;;;;;;5094564;28;20051;-73
2022/12/29 12:27:00;;;;;;;14.73;2.10;;;9.10;99.90;;;;;;5095382;28;20372;-73
2022/12/29 12:29:56;;;;;;;14.77;2.40;;;9.00;99.90;;;;;;5095533;28;20365;-73
2022/12/29 12:32:44;;;;;;;20.85;2.20;;;9.00;99.90;;;;;;5094201;28;20048;-72
2022/12/29 12:35:23;;;;;;;21.00;2.33;;;9.00;99.90;;;;;;5115591;28;20058;-74
2022/12/29 12:38:09;;;;;;;15.30;2.45;;;9.00;99.90;;;;;;5115023;28;20341;-73
2022/12/29 12:40:46;;;;;;;16.87;2.57;;;9.00;99.90;;;;;;5081475;28;20039;-74
2022/12/29 12:43:37;;;;;;;22.05;2.75;;;9.00;99.90;;;;;;5097556;28;20044;-73
2022/12/29 12:46:31;;;;;;;16.80;2.45;;;9.00;99.90;;;;;;5115883;28;20044;-73
2022/12/29 12:49:20;;;;;;;20.08;2.70;;;9.00;99.90;;;;;;5052651;28;20040;-72
2022/12/29 12:52:03;;;;;;;19.83;2.60;;;9.00;99.90;;;;;;5114258;28;20055;-72
2022/12/29 12:54:32;;;;;;;16.45;2.65;;;9.10;99.90;;;;;;5098083;28;20353;-72
2022/12/29 12:57:05;;;;;;;18.45;2.63;;;9.10;99.90;;;;;;5111759;28;20044;-72
2022/12/29 13:00:00;;;;;;;21.20;2.55;;;9.00;99.90;;;;;;5094903;28;20045;-72
2022/12/29 13:02:44;;;;;;;18.98;2.80;;;8.90;99.90;;;;;;5076355;28;20044;-74
2022/12/29 13:05:20;;;;;;;17.38;2.80;;;8.80;99.90;;;;;;5093113;28;20087;-74
2022/12/29 13:08:14;;;;;;;19.23;2.75;;;9.80;99.90;;;;;;5094881;28;20048;-74
2022/12/29 13:11:05;;;;;;;19.65;2.83;;;8.80;99.90;;;;;;5076192;28;20047;-74
2022/12/29 13:14:06;;;;;;;23.38;3.45;;;8.80;99.90;;;;;;5095058;28;20048;-74
2022/12/29 13:17:01;;;;;;;14.27;2.35;;;8.80;99.90;;;;;;5077110;28;20372;-74
2022/12/29 13:19:36;;;;;;;19.23;3.35;;;8.90;99.90;;;;;;5077452;28;20044;-74
2022/12/29 13:22:43;;;;;;;18.02;3.22;;;8.90;99.90;;;;;;5077240;28;20516;-74
2022/12/29 13:25:49;;;;;;;21.58;3.28;;;9.00;99.90;;;;;;5093459;28;20052;-74
2022/12/29 13:28:42;;;;;;;14.00;2.75;;;9.30;99.90;;;;;;4977257;28;20070;-74
2022/12/29 13:31:20;;;;;;;15.68;2.80;;;9.20;99.90;;;;;;4992427;28;20506;-74
2022/12/29 13:34:14;;;;;;;;;;;9.30;99.90;;;;;;5067778;28;20063;-73
2022/12/29 13:37:04;;;;;;;19.52;2.45;;;9.40;99.90;;;;;;5074460;28;19943;-72
2022/12/29 13:39:39;;;;;;;21.15;2.90;;;9.40;99.90;;;;;;5087525;28;20041;-72
2022/12/29 13:42:07;;;;;;;19.48;2.55;;;9.50;99.90;;;;;;5103902;28;20043;-72
2022/12/29 13:44:37;;;;;;;;;;;9.40;99.90;;;;;;5114037;28;20035;-72
2022/12/29 13:47:33;;;;;;;13.65;2.30;;;9.60;99.90;;;;;;5086198;28;19927;-73
2022/12/29 13:50:03;;;;;;;19.88;2.95;;;9.60;99.90;;;;;;5083734;28;20043;-73
2022/12/29 13:52:49;;;;;;;18.17;2.88;;;9.50;99.90;;;;;;5118098;28;20040;-73
2022/12/29 13:55:37;;;;;;;25.27;2.80;;;9.50;99.90;;;;;;5118581;28;20051;-73
2022/12/29 13:58:48;;;;;;;20.92;3.05;;;9.50;99.90;;;;;;5117528;28;20044;-73
2022/12/29 14:01:34;;;;;;;16.55;2.38;;;9.40;99.90;;;;;;5092102;28;20056;-73
2022/12/29 14:04:09;;;;;;;20.02;3.05;;;9.30;99.90;;;;;;5117513;28;20046;-73